createdAt,value
2023-07-19T00:04:26.959Z,18.71
2023-07-19T00:09:29.600Z,18.61
2023-07-19T00:14:33.520Z,18.55
2023-07-19T00:19:36.053Z,18.52
2023-07-19T00:24:38.582Z,18.44
2023-07-19T00:29:42.404Z,18.32
2023-07-19T00:34:45.052Z,18.19
2023-07-19T00:39:47.585Z,18.12
2023-07-19T00:44:51.507Z,18.01
2023-07-19T00:49:54.044Z,17.95
2023-07-19T00:54:56.803Z,17.89
2023-07-19T01:00:00.983Z,17.87
2023-07-19T01:05:03.688Z,17.84
2023-07-19T01:10:08.071Z,17.85
2023-07-19T01:15:12.140Z,17.85
2023-07-19T01:20:14.665Z,17.85
2023-07-19T01:25:18.591Z,17.89
2023-07-19T01:30:21.351Z,17.94
2023-07-19T01:35:24.172Z,17.91
2023-07-19T01:40:28.021Z,17.92
2023-07-19T01:45:30.618Z,17.94
2023-07-19T01:50:33.174Z,17.92
2023-07-19T01:55:37.044Z,17.91
2023-07-19T02:00:39.783Z,17.90
2023-07-19T02:05:42.696Z,17.91
2023-07-19T02:10:46.540Z,17.88
2023-07-19T02:15:49.221Z,17.87
2023-07-19T02:20:54.983Z,17.87
2023-07-19T02:25:59.133Z,17.87
2023-07-19T02:31:01.712Z,17.89
2023-07-19T02:36:04.622Z,17.87
2023-07-19T02:41:08.889Z,17.83
2023-07-19T02:46:11.587Z,17.82
2023-07-19T02:51:14.180Z,17.84
2023-07-19T02:56:18.107Z,17.81
2023-07-19T03:01:21.203Z,17.77
2023-07-19T03:06:24.015Z,17.67
2023-07-19T03:11:28.260Z,17.64
2023-07-19T03:16:30.831Z,17.63
2023-07-19T03:21:33.403Z,17.58
2023-07-19T03:26:37.294Z,17.52
2023-07-19T03:31:39.984Z,17.50
2023-07-19T03:36:42.558Z,17.46
2023-07-19T03:41:46.660Z,17.39
2023-07-19T03:46:49.456Z,17.36
2023-07-19T03:51:52.118Z,17.34
2023-07-19T03:56:56.126Z,17.35
2023-07-19T04:01:58.709Z,17.34
2023-07-19T04:07:01.262Z,17.27
2023-07-19T04:12:05.896Z,17.23
2023-07-19T04:17:08.852Z,17.21
2023-07-19T04:22:11.413Z,17.18
2023-07-19T04:27:15.265Z,17.20
2023-07-19T04:32:18.689Z,17.20
2023-07-19T04:37:21.401Z,17.21
2023-07-19T04:42:25.901Z,17.25
2023-07-19T04:47:28.843Z,17.30
2023-07-19T04:52:31.389Z,17.28
2023-07-19T04:57:35.239Z,17.31
2023-07-19T05:02:37.805Z,17.34
2023-07-19T05:07:41.632Z,17.38
2023-07-19T05:12:45.663Z,17.40
2023-07-19T05:17:48.215Z,17.40
2023-07-19T05:22:50.971Z,17.39
2023-07-19T05:27:54.834Z,17.35
2023-07-19T05:32:57.378Z,17.25
2023-07-19T05:38:00.673Z,17.25
2023-07-19T05:43:04.785Z,17.28
2023-07-19T05:48:07.423Z,17.34
2023-07-19T05:53:10.024Z,17.39
2023-07-19T05:58:13.873Z,17.43
2023-07-19T06:03:17.458Z,17.46
2023-07-19T06:08:25.010Z,17.49
2023-07-19T06:13:29.294Z,17.50
2023-07-19T06:18:31.920Z,17.46
2023-07-19T06:23:34.669Z,17.39
2023-07-19T06:28:38.795Z,17.39
2023-07-19T06:33:41.400Z,17.33
2023-07-19T06:38:43.933Z,17.35
2023-07-19T06:43:47.803Z,17.39
2023-07-19T06:48:50.434Z,17.41
2023-07-19T06:54:04.653Z,17.46
2023-07-19T06:59:16.766Z,17.43
2023-07-19T07:04:19.285Z,17.42
2023-07-19T07:09:21.809Z,17.39
2023-07-19T07:14:26.215Z,17.34
2023-07-19T07:19:28.762Z,17.31
2023-07-19T07:24:31.389Z,17.22
2023-07-19T07:29:35.278Z,17.15
2023-07-19T07:34:37.864Z,17.12
2023-07-19T07:39:40.396Z,17.16
2023-07-19T07:44:45.965Z,17.19
2023-07-19T07:49:49.858Z,17.11
2023-07-19T07:54:52.850Z,17.07
2023-07-19T07:59:56.720Z,17.05
2023-07-19T08:04:59.243Z,17.00
2023-07-19T08:10:01.769Z,16.98
2023-07-19T08:15:07.018Z,16.95
2023-07-19T08:20:11.271Z,16.87
2023-07-19T08:25:26.424Z,16.82
2023-07-19T08:30:33.504Z,16.78
2023-07-19T08:35:36.571Z,16.75
2023-07-19T08:40:40.627Z,16.67
2023-07-19T08:45:44.532Z,16.52
2023-07-19T08:50:50.800Z,16.49
2023-07-19T08:55:54.544Z,16.54
2023-07-19T09:00:58.434Z,16.65
2023-07-19T09:06:01.096Z,16.70
2023-07-19T09:11:03.661Z,16.69
2023-07-19T09:16:08.345Z,16.62
2023-07-19T09:21:10.931Z,16.55
2023-07-19T09:26:13.552Z,16.55
2023-07-19T09:36:30.898Z,16.61
2023-07-19T09:41:34.264Z,16.66
2023-07-19T09:46:38.837Z,16.67
2023-07-19T09:51:43.204Z,16.70
2023-07-19T09:56:46.266Z,16.73
2023-07-19T10:01:50.956Z,16.57
2023-07-19T10:07:04.775Z,16.53
2023-07-19T10:12:09.907Z,16.47
2023-07-19T10:17:13.814Z,16.54
2023-07-19T10:22:16.404Z,16.56
2023-07-19T10:27:37.092Z,16.54
2023-07-19T10:32:41.157Z,16.41
2023-07-19T10:37:53.637Z,16.44
2023-07-19T10:42:56.501Z,16.58
2023-07-19T10:48:01.957Z,16.71
2023-07-19T10:53:04.559Z,16.87
2023-07-19T10:58:07.937Z,16.99
2023-07-19T11:03:14.713Z,17.11
2023-07-19T11:08:27.312Z,17.22
2023-07-19T11:13:29.836Z,17.45
2023-07-19T11:18:39.316Z,17.65
2023-07-19T11:23:45.448Z,17.83
2023-07-19T11:28:50.215Z,17.97
2023-07-19T11:33:59.236Z,18.01
2023-07-19T11:39:02.352Z,17.98
2023-07-19T11:44:04.962Z,18.07
2023-07-19T11:49:11.284Z,18.08
2023-07-19T11:54:14.738Z,18.10
2023-07-19T11:59:17.431Z,17.98
2023-07-19T12:04:21.445Z,17.87
2023-07-19T12:09:24.016Z,17.86
2023-07-19T12:14:28.926Z,17.80
2023-07-19T12:19:33.092Z,17.76
2023-07-19T12:24:35.637Z,17.94
2023-07-19T12:29:48.657Z,18.13
2023-07-19T12:35:01.821Z,18.08
2023-07-19T12:40:06.384Z,17.95
2023-07-19T12:45:11.325Z,17.92
2023-07-19T12:50:15.166Z,18.05
2023-07-19T12:55:17.769Z,18.11
2023-07-19T13:00:20.702Z,18.21
2023-07-19T13:05:24.590Z,18.24
2023-07-19T13:10:27.328Z,18.28
2023-07-19T13:15:29.876Z,18.33
2023-07-19T13:20:34.077Z,18.33
2023-07-19T13:25:36.629Z,18.46
2023-07-19T13:30:40.084Z,18.76
2023-07-19T13:40:49.649Z,19.01
2023-07-19T13:45:52.241Z,19.08
2023-07-19T13:50:56.778Z,19.13
2023-07-19T13:55:59.376Z,19.25
2023-07-19T14:01:02.053Z,19.55
2023-07-19T14:06:06.019Z,19.77
2023-07-19T14:11:08.542Z,19.99
2023-07-19T14:16:11.132Z,20.15
2023-07-19T14:21:15.532Z,20.09
2023-07-19T14:26:18.496Z,20.32
2023-07-19T14:31:22.674Z,20.78
2023-07-19T14:36:27.317Z,21.01
2023-07-19T14:41:30.555Z,20.98
2023-07-19T14:46:34.318Z,21.10
2023-07-19T14:51:38.285Z,20.94
2023-07-19T14:56:40.905Z,21.28
2023-07-19T15:01:43.674Z,21.57
2023-07-19T15:06:47.750Z,22.01
2023-07-19T15:11:50.429Z,22.34
2023-07-19T15:16:53.139Z,22.43
2023-07-19T15:21:57.326Z,22.33
2023-07-19T15:27:03.081Z,22.25
2023-07-19T15:32:06.066Z,21.94
2023-07-19T15:37:09.997Z,21.89
2023-07-19T15:42:12.561Z,22.06
2023-07-19T15:47:15.108Z,22.24
2023-07-19T15:52:19.095Z,22.05
2023-07-19T15:57:21.693Z,21.68
2023-07-19T16:02:24.363Z,21.53
2023-07-19T16:07:29.325Z,21.59
2023-07-19T16:12:31.889Z,21.38
2023-07-19T16:17:34.814Z,21.25
2023-07-19T16:22:38.788Z,21.18
2023-07-19T16:27:41.377Z,21.09
2023-07-19T16:37:47.888Z,21.06
2023-07-19T16:42:50.506Z,20.78
2023-07-19T16:47:58.049Z,20.59
2023-07-19T16:53:13.335Z,20.77
2023-07-19T16:58:16.459Z,20.83
2023-07-19T17:03:19.404Z,20.88
2023-07-19T17:08:23.280Z,20.84
2023-07-19T17:13:26.282Z,20.80
2023-07-19T17:18:29.051Z,20.54
2023-07-19T17:23:33.369Z,20.28
2023-07-19T17:28:35.898Z,20.16
2023-07-19T17:33:38.613Z,19.94
2023-07-19T17:38:43.212Z,19.77
2023-07-19T17:43:45.767Z,19.79
2023-07-19T17:48:52.386Z,19.73
2023-07-19T17:53:56.282Z,19.56
2023-07-19T17:58:58.855Z,19.38
2023-07-19T18:04:01.473Z,19.33
2023-07-19T18:09:05.385Z,19.41
2023-07-19T18:14:08.350Z,19.45
2023-07-19T18:19:10.916Z,19.37
2023-07-19T18:24:14.815Z,19.32
2023-07-19T18:29:19.889Z,19.31
2023-07-19T18:34:22.703Z,19.27
2023-07-19T18:39:26.586Z,19.22
2023-07-19T18:44:29.157Z,19.13
2023-07-19T18:49:31.689Z,19.01
2023-07-19T18:54:35.554Z,18.94
2023-07-19T18:59:38.091Z,18.89
2023-07-19T19:04:40.748Z,18.90
2023-07-19T19:09:44.614Z,18.83
2023-07-19T19:14:47.461Z,18.71
2023-07-19T19:19:50.084Z,18.63
2023-07-19T19:24:54.052Z,18.52
2023-07-19T19:29:56.574Z,18.37
2023-07-19T19:34:59.151Z,18.24
2023-07-19T19:40:03.109Z,18.08
2023-07-19T19:45:08.744Z,18.00
2023-07-19T19:50:12.348Z,17.87
2023-07-19T19:55:16.238Z,17.74
2023-07-19T20:10:33.222Z,17.22
2023-07-19T20:15:48.152Z,17.10
2023-07-19T20:20:53.325Z,16.95
2023-07-19T20:26:12.080Z,16.86
2023-07-19T20:46:35.375Z,16.44
2023-07-19T20:51:38.174Z,16.34
2023-07-19T20:56:42.331Z,16.29
2023-07-19T21:01:44.974Z,16.31
2023-07-19T21:06:47.544Z,16.36
2023-07-19T21:11:51.528Z,16.39
2023-07-19T21:16:54.119Z,16.36
2023-07-19T21:21:56.767Z,16.31
2023-07-19T21:27:00.763Z,16.17
2023-07-19T21:32:04.323Z,15.98
2023-07-19T21:37:07.174Z,15.86
2023-07-19T21:42:11.191Z,15.79
2023-07-19T21:47:13.706Z,15.72
2023-07-19T21:52:16.504Z,15.65
2023-07-19T21:57:20.357Z,15.58
2023-07-19T22:02:22.888Z,15.53
2023-07-19T22:07:25.425Z,15.50
2023-07-19T22:12:29.292Z,15.43
2023-07-19T22:17:32.048Z,15.35
2023-07-19T22:22:34.766Z,15.29
2023-07-19T22:27:38.723Z,15.21
2023-07-19T22:32:41.294Z,15.13
2023-07-19T22:37:44.029Z,15.12
2023-07-19T22:42:48.225Z,15.11
2023-07-19T22:47:50.970Z,15.09
2023-07-19T22:52:55.314Z,15.07
2023-07-19T22:57:59.413Z,15.05
2023-07-19T23:03:02.061Z,14.97
2023-07-19T23:08:04.973Z,14.94
2023-07-19T23:13:08.883Z,14.92
2023-07-19T23:18:11.442Z,14.89
2023-07-19T23:23:14.488Z,14.87
2023-07-19T23:28:18.742Z,14.85
2023-07-19T23:33:21.425Z,14.82
2023-07-19T23:38:24.078Z,14.82
2023-07-19T23:43:27.967Z,14.78
2023-07-19T23:48:30.512Z,14.71
2023-07-19T23:53:33.199Z,14.61
2023-07-19T23:58:37.181Z,14.60
